Time;durP1;ratioP1;P1;durP2;ratioP2;P2;SDS_P1;SDS_P2;PMS_P1;PMS_P2;Temp;Humidity;BMP_temperature;BMP_pressure;BME280_temperature;BME280_humidity;BME280_pressure;Samples;Min_cycle;Max_cycle;Signal;HPM_P1;HPM_P2
2022/08/11 00:00:59;;;;;;;2.20;2.00;;;20.00;48.40;;;;;;5069590;28;20699;-80
2022/08/11 00:03:27;;;;;;;3.07;2.03;;;20.00;48.60;;;;;;5083489;28;20725;-79
2022/08/11 00:05:56;;;;;;;3.60;2.00;;;19.90;49.10;;;;;;5080930;28;20653;-79
2022/08/11 00:08:25;;;;;;;2.23;2.03;;;19.80;49.20;;;;;;5095797;28;20622;-80
2022/08/11 00:10:55;;;;;;;1.97;1.87;;;19.80;49.30;;;;;;5082639;28;21206;-79
2022/08/11 00:13:31;;;;;;;4.83;1.83;;;19.70;49.50;;;;;;5089373;28;20624;-79
2022/08/11 00:15:58;;;;;;;2.53;2.03;;;19.60;50.20;;;;;;5087355;28;20753;-79
2022/08/11 00:18:25;;;;;;;4.70;3.13;;;19.60;50.90;;;;;;5091326;28;20635;-79
2022/08/11 00:20:58;;;;;;;2.70;2.00;;;19.60;51.80;;;;;;5085971;28;21203;-79
2022/08/11 00:23:26;;;;;;;2.70;2.50;;;19.50;52.20;;;;;;5086485;28;20964;-79
2022/08/11 00:25:55;;;;;;;2.63;2.30;;;19.40;53.30;;;;;;5081352;28;20652;-80
2022/08/11 00:28:26;;;;;;;1.83;1.73;;;19.30;53.50;;;;;;5086831;28;20996;-80
2022/08/11 00:30:55;;;;;;;4.20;1.70;;;19.30;53.40;;;;;;5087280;28;20624;-79
2022/08/11 00:33:25;;;;;;;5.17;2.70;;;19.20;53.90;;;;;;5074373;28;20643;-79
2022/08/11 00:35:57;;;;;;;2.80;2.23;;;19.20;53.60;;;;;;5076725;28;20655;-80
2022/08/11 00:38:28;;;;;;;2.80;2.00;;;19.20;54.20;;;;;;5086868;28;20608;-80
2022/08/11 00:41:04;;;;;;;2.20;2.00;;;19.10;54.70;;;;;;5085333;28;20684;-80
2022/08/11 00:43:47;;;;;;;3.10;2.43;;;19.10;55.50;;;;;;5095053;28;21018;-79
2022/08/11 00:46:22;;;;;;;3.40;1.83;;;19.00;56.40;;;;;;5084582;28;20665;-79
2022/08/11 00:49:02;;;;;;;2.50;2.30;;;19.00;56.80;;;;;;5085903;28;20661;-80
2022/08/11 00:51:44;;;;;;;2.40;2.20;;;18.90;57.60;;;;;;5087680;28;20627;-80
2022/08/11 00:54:36;;;;;;;3.43;2.73;;;18.70;58.60;;;;;;5084246;28;20613;-80
2022/08/11 00:57:35;;;;;;;2.33;2.10;;;18.70;59.20;;;;;;5083129;28;20675;-80
2022/08/11 01:00:14;;;;;;;2.50;2.30;;;18.60;61.40;;;;;;5082539;28;20624;-79
2022/08/11 01:03:12;;;;;;;2.33;2.13;;;18.60;61.70;;;;;;5082404;28;20990;-79
2022/08/11 01:06:00;;;;;;;2.77;2.30;;;18.50;62.30;;;;;;5070931;28;21079;-79
2022/08/11 01:09:05;;;;;;;2.60;2.40;;;18.50;62.90;;;;;;5082166;28;21181;-79
2022/08/11 01:11:56;;;;;;;3.40;2.30;;;18.40;64.30;;;;;;5085950;28;21015;-79
2022/08/11 01:14:40;;;;;;;2.27;1.90;;;18.40;64.40;;;;;;5083276;28;20634;-79
2022/08/11 01:17:52;;;;;;;4.07;2.30;;;18.30;63.90;;;;;;5084922;28;21606;-79
2022/08/11 01:20:59;;;;;;;3.77;1.97;;;18.30;65.70;;;;;;5083908;28;20620;-79
2022/08/11 01:24:07;;;;;;;5.00;2.10;;;18.20;66.80;;;;;;5082408;28;20804;-79
2022/08/11 01:27:12;;;;;;;2.10;2.00;;;18.20;67.90;;;;;;5086027;28;20734;-79
2022/08/11 01:30:15;;;;;;;4.93;1.63;;;18.20;69.10;;;;;;5090591;28;20631;-79
2022/08/11 01:33:41;;;;;;;2.57;2.00;;;18.10;70.30;;;;;;5080428;28;20660;-79
2022/08/11 01:36:53;;;;;;;2.47;2.27;;;18.00;71.40;;;;;;5080539;28;20667;-80
2022/08/11 01:39:51;;;;;;;2.03;1.80;;;18.00;72.70;;;;;;5072388;28;21233;-79
2022/08/11 01:45:45;;;;;;;2.43;1.87;;;17.90;74.60;;;;;;5081442;28;20760;-79
2022/08/11 01:48:20;;;;;;;2.53;2.20;;;17.90;75.80;;;;;;5090695;28;20644;-79
2022/08/11 01:51:01;;;;;;;3.67;2.10;;;17.80;77.00;;;;;;5080756;28;20627;-79
2022/08/11 01:53:41;;;;;;;2.50;1.93;;;17.80;78.00;;;;;;5088402;28;20627;-79
2022/08/11 01:56:29;;;;;;;5.07;2.03;;;17.70;78.40;;;;;;5075831;28;20659;-79
2022/08/11 01:59:17;;;;;;;4.13;2.40;;;17.60;80.00;;;;;;5084614;28;21207;-79
2022/08/11 02:01:57;;;;;;;3.27;2.17;;;17.60;80.80;;;;;;5082554;28;20629;-79
2022/08/11 02:04:33;;;;;;;1.97;1.87;;;17.60;81.70;;;;;;5079909;28;21112;-79
2022/08/11 02:07:09;;;;;;;2.40;2.20;;;17.60;81.90;;;;;;5080813;28;21304;-79
2022/08/11 02:09:54;;;;;;;4.63;2.30;;;17.50;83.00;;;;;;5084700;28;21064;-79
2022/08/11 02:12:45;;;;;;;3.90;2.40;;;17.50;84.00;;;;;;5075244;28;20643;-79
2022/08/11 02:15:21;;;;;;;3.07;2.40;;;17.40;84.70;;;;;;5084328;28;20771;-79
2022/08/11 02:17:58;;;;;;;2.00;1.80;;;17.40;86.00;;;;;;5089260;28;20623;-79
2022/08/11 02:23:41;;;;;;;2.87;2.40;;;17.40;86.60;;;;;;5088728;28;20673;-79
2022/08/11 02:26:20;;;;;;;2.20;2.00;;;17.40;87.50;;;;;;5086246;28;20657;-80
2022/08/11 02:28:59;;;;;;;3.23;2.30;;;17.30;88.00;;;;;;5089586;28;20662;-79
2022/08/11 02:34:38;;;;;;;2.67;2.20;;;17.30;89.30;;;;;;5083749;28;20655;-79
2022/08/11 02:37:16;;;;;;;3.80;2.17;;;17.30;89.40;;;;;;5081688;28;20644;-79
2022/08/11 02:39:53;;;;;;;3.17;2.23;;;17.20;89.80;;;;;;5083814;28;20617;-79
2022/08/11 02:42:29;;;;;;;3.03;2.80;;;17.20;90.80;;;;;;5072382;28;20697;-79
2022/08/11 02:45:29;;;;;;;2.80;2.57;;;17.20;91.00;;;;;;5074842;28;20616;-79
2022/08/11 02:50:59;;;;;;;4.77;3.13;;;17.20;91.60;;;;;;5087791;28;20621;-79
2022/08/11 02:53:32;;;;;;;2.10;1.90;;;17.10;91.80;;;;;;5081734;28;20611;-80
2022/08/11 02:56:07;;;;;;;1.93;1.83;;;17.10;92.70;;;;;;5084072;28;20664;-79
2022/08/11 02:58:44;;;;;;;2.37;2.17;;;17.10;92.60;;;;;;5089800;28;20622;-79
2022/08/11 03:01:18;;;;;;;3.03;2.20;;;17.00;93.10;;;;;;5084485;28;20634;-80
2022/08/11 03:03:53;;;;;;;2.97;2.77;;;17.00;93.70;;;;;;5084991;28;21536;-79
2022/08/11 03:06:28;;;;;;;3.40;2.50;;;17.00;93.60;;;;;;5083802;28;20997;-80
2022/08/11 03:09:04;;;;;;;2.93;2.60;;;17.00;93.90;;;;;;5082706;28;20762;-79
2022/08/11 03:17:35;;;;;;;2.57;2.37;;;16.90;95.00;;;;;;5071676;28;20609;-80
2022/08/11 03:20:34;;;;;;;2.60;2.40;;;16.80;95.30;;;;;;5079328;28;20627;-79
2022/08/11 03:23:09;;;;;;;3.07;2.83;;;16.80;95.80;;;;;;5076559;28;21240;-79
2022/08/11 03:25:45;;;;;;;2.70;2.43;;;16.70;96.40;;;;;;5085085;28;20664;-79
2022/08/11 03:28:27;;;;;;;2.50;2.37;;;16.70;96.40;;;;;;5082406;28;21148;-79
2022/08/11 03:31:08;;;;;;;3.33;3.13;;;16.70;96.80;;;;;;5087053;28;20620;-79
2022/08/11 03:37:47;;;;;;;3.73;2.80;;;16.60;97.40;;;;;;5081989;28;20642;-79
2022/08/11 03:40:13;;;;;;;2.77;2.53;;;16.60;98.10;;;;;;5084162;28;21066;-79
2022/08/11 03:42:46;;;;;;;3.40;2.73;;;16.50;98.40;;;;;;5079553;28;20640;-79
2022/08/11 03:45:24;;;;;;;3.07;2.40;;;16.50;98.70;;;;;;5075823;28;20645;-79
2022/08/11 03:48:07;;;;;;;3.00;2.80;;;16.50;99.20;;;;;;5070569;28;20676;-79
2022/08/11 03:50:55;;;;;;;2.80;2.63;;;16.50;99.30;;;;;;5081392;28;20685;-79
2022/08/11 03:53:39;;;;;;;2.43;2.23;;;16.40;99.90;;;;;;5086416;28;20631;-79
2022/08/11 03:56:51;;;;;;;2.50;2.40;;;16.40;99.90;;;;;;5090905;28;20660;-79
2022/08/11 03:59:43;;;;;;;2.73;2.50;;;16.40;99.90;;;;;;5087789;28;21859;-79
2022/08/11 04:02:28;;;;;;;2.23;2.13;;;16.40;99.90;;;;;;5088242;28;21180;-78
2022/08/11 04:05:39;;;;;;;2.80;2.53;;;16.40;99.90;;;;;;5088198;28;20638;-79
2022/08/11 04:08:29;;;;;;;3.27;2.83;;;16.30;99.90;;;;;;5042060;28;21087;-78
2022/08/11 04:11:25;;;;;;;3.03;2.73;;;16.30;99.90;;;;;;5085499;28;20620;-79
2022/08/11 04:17:35;;;;;;;3.00;2.63;;;16.40;99.90;;;;;;5093224;28;21016;-79
2022/08/11 04:20:22;;;;;;;3.00;2.80;;;16.40;99.90;;;;;;5077469;28;20632;-79
2022/08/11 04:23:14;;;;;;;3.30;3.00;;;16.30;99.90;;;;;;5078322;28;20707;-79
2022/08/11 04:26:08;;;;;;;2.63;2.43;;;16.30;99.90;;;;;;5085429;28;20642;-79
2022/08/11 04:28:53;;;;;;;2.63;2.53;;;16.30;99.90;;;;;;5085747;28;20668;-79
2022/08/11 04:31:36;;;;;;;3.73;2.93;;;16.40;99.90;;;;;;5091317;28;20976;-79
2022/08/11 04:34:41;;;;;;;3.13;2.83;;;16.30;99.90;;;;;;5087818;28;20608;-79
2022/08/11 04:37:34;;;;;;;3.60;3.30;;;16.40;99.90;;;;;;5091820;28;20681;-78
2022/08/11 04:40:31;;;;;;;3.60;2.80;;;16.30;99.90;;;;;;5088386;28;20688;-80
2022/08/11 04:43:27;;;;;;;3.30;3.00;;;16.30;99.90;;;;;;5087311;28;20654;-80
2022/08/11 04:46:20;;;;;;;3.83;3.43;;;16.40;99.90;;;;;;5088473;28;20615;-79
2022/08/11 05:02:14;;;;;;;2.87;2.50;;;16.50;99.90;;;;;;4989550;28;21058;-80
2022/08/11 05:08:50;;;;;;;3.00;2.73;;;16.60;99.90;;;;;;5088839;28;20681;-80
2022/08/11 05:12:01;;;;;;;2.93;2.40;;;16.70;99.90;;;;;;5089893;28;20630;-80
2022/08/11 05:37:22;;;;;;;3.10;2.83;;;17.30;99.90;;;;;;5091456;28;21180;-80
2022/08/11 05:56:44;;;;;;;4.37;3.77;;;18.00;99.90;;;;;;5070373;28;20588;-80
2022/08/11 05:59:16;;;;;;;5.43;3.00;;;18.10;99.90;;;;;;5087848;28;20652;-80
2022/08/11 06:01:46;;;;;;;5.80;3.17;;;18.20;99.90;;;;;;5087214;28;20631;-79
2022/08/11 06:04:18;;;;;;;3.67;3.13;;;18.30;99.90;;;;;;5090669;28;21150;-80
2022/08/11 06:06:51;;;;;;;3.30;2.87;;;18.50;99.90;;;;;;5086392;28;20620;-80
2022/08/11 06:09:24;;;;;;;4.13;3.40;;;18.60;99.90;;;;;;5087227;28;21251;-79
2022/08/11 06:11:51;;;;;;;5.73;3.50;;;18.70;99.50;;;;;;5087278;28;20626;-79
2022/08/11 06:14:20;;;;;;;4.43;3.10;;;18.80;99.10;;;;;;5086787;28;20636;-79
2022/08/11 06:16:50;;;;;;;4.13;3.10;;;18.90;99.10;;;;;;5094119;28;20644;-79
2022/08/11 06:19:20;;;;;;;6.07;3.43;;;19.00;98.30;;;;;;5087008;28;20763;-79
2022/08/11 06:21:48;;;;;;;6.07;3.57;;;19.10;98.30;;;;;;5086552;28;20663;-79
2022/08/11 06:24:16;;;;;;;3.87;2.97;;;19.20;96.80;;;;;;5080467;28;20714;-79
2022/08/11 06:26:49;;;;;;;4.27;3.27;;;19.30;95.90;;;;;;5073760;28;20628;-79
2022/08/11 06:29:18;;;;;;;4.00;3.60;;;19.50;95.90;;;;;;5074946;28;20669;-79
2022/08/11 06:31:53;;;;;;;4.00;2.90;;;19.60;95.70;;;;;;5082178;28;20656;-79
2022/08/11 06:34:32;;;;;;;7.70;3.80;;;19.70;94.90;;;;;;5076315;28;22817;-79
2022/08/11 06:37:14;;;;;;;4.37;2.93;;;19.80;94.70;;;;;;5075065;28;20611;-79
2022/08/11 06:39:47;;;;;;;3.87;3.43;;;20.00;94.10;;;;;;5070728;28;21247;-79
2022/08/11 06:42:26;;;;;;;5.03;3.30;;;20.10;93.30;;;;;;5079532;28;20628;-79
2022/08/11 06:45:03;;;;;;;3.00;2.80;;;20.20;92.70;;;;;;5076336;28;21353;-79
2022/08/11 06:47:32;;;;;;;6.40;3.40;;;20.40;91.90;;;;;;5074805;28;21234;-80
2022/08/11 06:52:42;;;;;;;2.97;2.77;;;20.60;90.60;;;;;;5059481;28;20619;-79
2022/08/11 06:55:12;;;;;;;3.27;3.00;;;20.70;90.40;;;;;;5079537;28;21238;-79
2022/08/11 07:00:28;;;;;;;5.73;3.00;;;21.00;90.10;;;;;;5074900;28;20674;-80
2022/08/11 07:03:00;;;;;;;3.67;3.30;;;21.20;88.60;;;;;;5073491;28;20643;-79
2022/08/11 07:05:38;;;;;;;3.63;2.70;;;21.30;88.00;;;;;;5074724;28;20647;-79
2022/08/11 07:17:48;;;;;;;11.80;3.20;;;21.90;84.50;;;;;;5089480;28;20698;-79
2022/08/11 07:28:57;;;;;;;3.30;3.10;;;22.30;82.60;;;;;;5085372;28;20736;-78
2022/08/11 07:31:30;;;;;;;4.33;2.67;;;22.50;82.50;;;;;;5089173;28;20726;-78
2022/08/11 07:34:09;;;;;;;5.90;2.53;;;22.60;81.40;;;;;;5078546;28;20674;-77
2022/08/11 07:36:40;;;;;;;2.93;2.40;;;22.70;79.70;;;;;;5076443;28;20627;-78
2022/08/11 07:39:12;;;;;;;2.87;2.67;;;22.80;80.10;;;;;;5073768;28;21222;-78
2022/08/11 07:41:39;;;;;;;2.37;2.27;;;22.90;79.00;;;;;;5072037;28;20632;-78
2022/08/11 07:44:10;;;;;;;2.80;2.60;;;23.00;78.60;;;;;;5068321;28;20656;-78
2022/08/11 07:52:29;;;;;;;3.37;2.77;;;23.40;77.60;;;;;;5077491;28;20604;-78
2022/08/11 07:54:57;;;;;;;3.50;3.20;;;23.50;77.10;;;;;;5074938;28;20660;-78
2022/08/11 08:19:31;;;;;;;3.33;3.00;;;24.50;72.10;;;;;;5082189;28;20678;-78
2022/08/11 08:21:58;;;;;;;5.80;2.57;;;24.60;71.10;;;;;;5074077;28;20729;-78
2022/08/11 08:24:28;;;;;;;3.40;2.97;;;24.70;70.40;;;;;;5072374;28;20651;-78
2022/08/11 08:26:58;;;;;;;3.23;2.90;;;24.80;69.90;;;;;;5083082;28;20625;-78
2022/08/11 08:32:11;;;;;;;4.97;2.63;;;24.90;68.20;;;;;;5084017;28;20696;-78
2022/08/11 08:34:40;;;;;;;2.90;2.70;;;25.00;68.30;;;;;;5086701;28;20666;-78
2022/08/11 08:37:08;;;;;;;2.60;2.40;;;25.10;66.90;;;;;;5072313;28;20636;-78
2022/08/11 08:39:37;;;;;;;3.83;2.53;;;25.10;66.70;;;;;;5080366;28;20624;-78
2022/08/11 08:42:09;;;;;;;2.63;2.10;;;25.20;66.20;;;;;;5085823;28;20705;-78
2022/08/11 08:44:41;;;;;;;2.77;2.57;;;25.30;64.80;;;;;;5078867;28;20652;-78
2022/08/11 08:47:12;;;;;;;3.93;2.47;;;25.30;65.40;;;;;;5085915;28;20628;-78
2022/08/11 08:49:48;;;;;;;2.80;2.60;;;25.50;65.00;;;;;;5075811;28;20649;-78
2022/08/11 08:52:18;;;;;;;2.63;2.47;;;25.60;64.20;;;;;;5087395;28;20652;-78
2022/08/11 08:54:52;;;;;;;2.70;2.50;;;25.70;64.30;;;;;;5089717;28;20686;-78
2022/08/11 08:57:22;;;;;;;2.90;2.43;;;25.80;63.50;;;;;;5086776;28;20665;-78
2022/08/11 08:59:51;;;;;;;6.47;2.87;;;25.90;64.00;;;;;;5077061;28;20643;-78
2022/08/11 09:02:20;;;;;;;4.63;2.23;;;25.80;61.80;;;;;;5073659;28;20605;-78
2022/08/11 09:04:48;;;;;;;2.90;2.70;;;25.90;61.60;;;;;;5074404;28;20653;-78
2022/08/11 09:07:17;;;;;;;3.27;2.47;;;26.00;61.00;;;;;;5075252;28;20636;-78
2022/08/11 09:09:47;;;;;;;2.63;2.43;;;26.10;60.80;;;;;;5085767;28;20655;-78
2022/08/11 09:12:15;;;;;;;3.37;2.27;;;26.10;60.10;;;;;;5083117;28;20952;-78
2022/08/11 09:17:40;;;;;;;2.40;2.23;;;26.10;58.70;;;;;;5063116;28;21254;-78
2022/08/11 09:20:09;;;;;;;3.00;1.87;;;26.10;58.70;;;;;;5077359;28;21260;-78
2022/08/11 09:28:13;;;;;;;2.43;2.03;;;26.30;57.50;;;;;;5082296;28;20941;-78
2022/08/11 09:30:42;;;;;;;2.60;2.40;;;26.40;56.50;;;;;;5085246;28;20634;-79
2022/08/11 09:33:11;;;;;;;2.73;2.30;;;26.40;55.70;;;;;;5076176;28;21684;-79
2022/08/11 09:35:41;;;;;;;4.83;2.37;;;26.30;55.30;;;;;;5079413;28;20648;-79
2022/08/11 09:40:58;;;;;;;2.93;2.40;;;26.60;55.40;;;;;;5079649;28;20683;-78
2022/08/11 09:46:13;;;;;;;2.43;2.23;;;26.80;54.50;;;;;;5083236;28;20576;-79
2022/08/11 09:48:44;;;;;;;2.93;1.90;;;26.90;52.80;;;;;;5080957;28;20663;-79
2022/08/11 09:51:13;;;;;;;2.30;2.10;;;26.90;53.20;;;;;;5084863;28;21033;-79
2022/08/11 09:53:42;;;;;;;3.00;2.30;;;27.00;53.70;;;;;;5073573;28;20632;-79
2022/08/11 09:59:03;;;;;;;2.33;2.23;;;27.20;53.10;;;;;;5081025;28;20704;-79
2022/08/11 10:01:31;;;;;;;2.20;2.00;;;27.30;53.10;;;;;;5087973;28;20726;-79
2022/08/11 10:04:03;;;;;;;6.70;2.40;;;27.30;52.10;;;;;;5083388;28;20715;-79
2022/08/11 10:09:19;;;;;;;7.50;2.40;;;27.40;51.80;;;;;;5073168;28;20690;-79
2022/08/11 10:11:48;;;;;;;4.13;2.20;;;27.40;51.20;;;;;;5069600;28;20632;-79
2022/08/11 10:17:06;;;;;;;2.47;2.27;;;27.50;52.10;;;;;;5076427;28;20644;-79
2022/08/11 10:19:34;;;;;;;4.20;2.30;;;27.60;51.40;;;;;;5087498;28;20644;-79
2022/08/11 10:27:32;;;;;;;5.87;2.17;;;27.90;50.30;;;;;;5082986;28;20615;-79
2022/08/11 10:35:32;;;;;;;2.23;2.13;;;28.30;49.00;;;;;;5083828;28;20614;-76
2022/08/11 10:38:00;;;;;;;2.57;2.37;;;28.50;48.80;;;;;;5071869;28;20624;-79
2022/08/11 10:40:28;;;;;;;2.33;2.20;;;28.60;49.30;;;;;;5083323;28;20638;-77
2022/08/11 10:43:01;;;;;;;2.13;1.93;;;28.80;48.00;;;;;;5087944;28;21250;-79
2022/08/11 10:48:15;;;;;;;4.47;3.50;;;29.20;47.80;;;;;;5083960;28;20576;-77
2022/08/11 10:59:03;;;;;;;2.50;2.30;;;29.80;45.50;;;;;;5080615;28;20628;-79
2022/08/11 11:01:33;;;;;;;3.80;2.30;;;30.10;45.10;;;;;;5087457;28;20615;-78
2022/08/11 11:04:02;;;;;;;2.50;2.00;;;30.30;44.80;;;;;;5081481;28;20656;-78
2022/08/11 11:06:35;;;;;;;2.80;2.00;;;30.50;43.80;;;;;;5085779;28;20623;-78
2022/08/11 11:09:06;;;;;;;2.20;2.00;;;30.70;43.30;;;;;;5083172;28;20680;-78
2022/08/11 11:19:59;;;;;;;3.90;2.57;;;31.70;41.80;;;;;;5080516;28;20627;-78
2022/08/11 11:22:38;;;;;;;2.00;1.80;;;31.90;40.50;;;;;;5075662;28;20631;-78
2022/08/11 11:25:20;;;;;;;2.90;2.03;;;32.20;40.70;;;;;;5080400;28;20633;-79
2022/08/11 11:28:03;;;;;;;4.23;2.13;;;32.50;40.00;;;;;;5081557;28;20639;-78
2022/08/11 11:30:37;;;;;;;4.93;1.83;;;32.80;39.80;;;;;;5082688;28;20676;-78
2022/08/11 11:33:11;;;;;;;3.13;1.80;;;33.10;38.40;;;;;;5075058;28;21438;-78
2022/08/11 11:35:53;;;;;;;4.63;2.03;;;33.30;37.20;;;;;;5068952;28;20635;-78
2022/08/11 11:38:21;;;;;;;3.70;2.70;;;33.50;36.30;;;;;;5076378;28;20623;-78
2022/08/11 11:41:23;;;;;;;3.23;1.80;;;33.60;36.70;;;;;;5069626;28;21219;-78
2022/08/11 11:43:36;;;;;;;3.57;2.10;;;33.80;36.20;;;;;;5074113;28;20654;-78
2022/08/11 11:46:06;;;;;;;2.90;1.83;;;33.90;35.30;;;;;;5077113;28;20643;-78
2022/08/11 11:48:35;;;;;;;6.00;2.30;;;34.00;35.50;;;;;;5077111;28;20657;-78
2022/08/11 11:51:02;;;;;;;2.50;2.03;;;34.20;35.10;;;;;;5080618;28;20668;-79
2022/08/11 11:53:30;;;;;;;2.40;2.20;;;34.10;33.60;;;;;;5082422;28;20632;-78
2022/08/11 11:55:58;;;;;;;5.53;2.00;;;34.20;33.50;;;;;;5075145;28;20640;-79
2022/08/11 12:01:18;;;;;;;4.23;2.00;;;34.70;33.80;;;;;;5072246;28;20724;-79
2022/08/11 12:03:47;;;;;;;2.70;1.77;;;35.00;33.50;;;;;;5076262;28;20626;-78
2022/08/11 12:06:15;;;;;;;2.00;1.90;;;35.20;33.20;;;;;;5065977;28;20644;-78
2022/08/11 12:08:43;;;;;;;1.87;1.77;;;35.50;32.80;;;;;;5067608;28;20633;-78
2022/08/11 12:14:00;;;;;;;2.23;2.03;;;36.10;31.20;;;;;;5084441;28;20583;-79
2022/08/11 12:16:29;;;;;;;3.27;1.70;;;36.40;31.50;;;;;;5090764;28;20639;-79
2022/08/11 12:18:59;;;;;;;1.93;1.73;;;36.60;30.80;;;;;;5081830;28;20656;-79
2022/08/11 12:21:27;;;;;;;5.43;1.80;;;36.80;30.40;;;;;;5083083;28;20630;-79
2022/08/11 12:29:27;;;;;;;4.03;2.10;;;37.20;29.70;;;;;;5082228;28;20240;-79
2022/08/11 12:31:57;;;;;;;2.50;2.10;;;37.30;29.30;;;;;;5082092;28;20209;-79
2022/08/11 12:34:27;;;;;;;3.15;1.98;;;37.60;29.20;;;;;;5072780;28;20210;-79
2022/08/11 12:36:57;;;;;;;3.28;2.33;;;37.80;28.90;;;;;;5076925;28;20201;-79
2022/08/11 12:53:13;;;;;;;1.70;1.60;;;38.80;27.20;;;;;;5083900;28;20276;-80
2022/08/11 12:58:27;;;;;;;4.30;2.30;;;39.20;26.80;;;;;;5081898;28;20739;-80
2022/08/11 13:06:27;;;;;;;2.20;1.65;;;39.70;26.50;;;;;;5077499;28;20383;-80
2022/08/11 13:08:57;;;;;;;2.28;1.83;;;40.00;26.60;;;;;;5076438;28;20227;-80
2022/08/11 13:14:09;;;;;;;2.20;2.10;;;39.30;25.90;;;;;;5066094;28;20213;-80
2022/08/11 13:19:20;;;;;;;1.63;1.52;;;38.30;25.90;;;;;;5082147;28;20579;-80
2022/08/11 13:21:49;;;;;;;5.60;1.90;;;38.60;26.20;;;;;;5078184;28;20677;-80
2022/08/11 13:24:17;;;;;;;7.32;1.98;;;39.20;26.40;;;;;;5069720;28;20293;-80
2022/08/11 13:26:44;;;;;;;2.47;2.38;;;39.60;25.90;;;;;;5071583;28;20230;-80
2022/08/11 13:29:13;;;;;;;2.38;1.90;;;39.80;25.50;;;;;;5072699;28;20222;-80
2022/08/11 13:31:42;;;;;;;2.17;1.98;;;40.20;25.40;;;;;;5080233;28;20386;-80
2022/08/11 13:34:09;;;;;;;2.08;1.60;;;40.50;25.10;;;;;;5074759;28;20230;-81
2022/08/11 13:36:38;;;;;;;1.92;1.63;;;40.70;25.60;;;;;;5077971;28;20203;-80
2022/08/11 13:39:05;;;;;;;3.22;1.90;;;41.10;24.80;;;;;;5080527;28;20390;-80
2022/08/11 13:41:39;;;;;;;7.82;1.92;;;40.70;24.20;;;;;;5082818;28;20217;-79
2022/08/11 13:44:07;;;;;;;5.05;1.90;;;40.80;24.80;;;;;;5079721;28;20209;-80
2022/08/11 13:46:35;;;;;;;2.05;1.50;;;40.70;24.20;;;;;;5080420;28;20209;-80
2022/08/11 13:49:02;;;;;;;2.13;1.67;;;40.90;24.50;;;;;;5079589;28;20225;-80
2022/08/11 13:51:32;;;;;;;1.95;1.70;;;40.90;24.00;;;;;;5074192;28;20282;-80
2022/08/11 13:54:04;;;;;;;1.40;1.30;;;41.30;24.30;;;;;;5077139;28;20313;-79
2022/08/11 13:56:33;;;;;;;5.10;1.90;;;41.50;23.80;;;;;;5066713;28;20213;-79
2022/08/11 13:59:03;;;;;;;1.45;1.35;;;41.20;23.60;;;;;;5080203;28;20228;-80
2022/08/11 14:01:32;;;;;;;3.88;1.50;;;41.40;24.10;;;;;;5085839;28;20222;-79
2022/08/11 14:04:05;;;;;;;3.20;1.85;;;41.70;23.90;;;;;;5083469;28;20221;-79
2022/08/11 14:06:33;;;;;;;1.90;1.60;;;41.80;23.80;;;;;;5088189;28;20204;-80
2022/08/11 14:09:04;;;;;;;1.95;1.67;;;41.90;23.50;;;;;;5088925;28;20285;-80
2022/08/11 14:14:21;;;;;;;6.95;1.80;;;41.90;23.30;;;;;;5079155;28;20291;-80
2022/08/11 14:16:50;;;;;;;1.75;1.63;;;42.10;23.20;;;;;;5093143;28;20221;-80
2022/08/11 14:19:21;;;;;;;1.55;1.45;;;42.00;23.10;;;;;;5087683;28;20258;-80
2022/08/11 14:22:10;;;;;;;2.67;1.60;;;42.30;23.10;;;;;;5087584;28;20775;-80
2022/08/11 14:24:40;;;;;;;3.22;1.75;;;42.40;23.00;;;;;;5080168;28;20392;-80
2022/08/11 14:27:10;;;;;;;2.88;1.50;;;42.50;22.60;;;;;;5088448;28;20213;-80
2022/08/11 14:29:40;;;;;;;2.20;1.65;;;42.70;22.60;;;;;;5093479;28;20335;-80
2022/08/11 14:32:10;;;;;;;1.50;1.40;;;42.70;22.40;;;;;;5076011;28;20198;-80
2022/08/11 14:34:40;;;;;;;1.92;1.70;;;42.60;22.00;;;;;;5093986;28;20197;-80
2022/08/11 14:37:11;;;;;;;5.07;1.45;;;42.80;22.10;;;;;;5083257;28;20202;-80
2022/08/11 14:39:43;;;;;;;5.22;1.73;;;42.90;21.80;;;;;;5083237;28;20221;-80
2022/08/11 14:48:00;;;;;;;2.03;1.92;;;43.00;21.60;;;;;;5086238;28;20907;-80
2022/08/11 14:50:28;;;;;;;7.70;1.70;;;43.30;21.50;;;;;;5086554;28;20216;-79
2022/08/11 14:52:58;;;;;;;1.85;1.60;;;43.20;21.30;;;;;;5084746;28;20202;-80
2022/08/11 14:58:17;;;;;;;1.50;1.40;;;43.30;21.40;;;;;;5077689;28;20718;-80
2022/08/11 15:00:45;;;;;;;1.65;1.55;;;43.20;21.30;;;;;;5083043;28;20225;-80
2022/08/11 15:03:13;;;;;;;2.53;1.52;;;43.20;21.40;;;;;;5085605;28;20665;-80
2022/08/11 15:05:46;;;;;;;1.95;1.75;;;43.20;21.40;;;;;;5082760;28;20228;-80
2022/08/11 15:08:15;;;;;;;3.58;1.95;;;43.30;21.50;;;;;;5083841;28;20231;-80
2022/08/11 15:10:44;;;;;;;4.38;1.73;;;43.30;21.20;;;;;;5080266;28;20258;-80
2022/08/11 15:13:11;;;;;;;6.60;1.52;;;43.40;21.50;;;;;;5078294;28;20210;-80
2022/08/11 15:18:27;;;;;;;1.65;1.50;;;43.30;21.50;;;;;;5079195;28;20228;-80
2022/08/11 15:37:44;;;;;;;2.47;1.60;;;42.90;21.30;;;;;;5088335;28;20236;-79
2022/08/11 15:46:06;;;;;;;2.17;1.60;;;43.00;20.90;;;;;;5038650;28;20199;-79
2022/08/11 15:48:44;;;;;;;1.80;1.35;;;42.50;20.90;;;;;;5086563;28;20201;-79
2022/08/11 15:51:21;;;;;;;2.08;1.98;;;42.60;20.90;;;;;;5095890;28;20201;-79
2022/08/11 15:53:53;;;;;;;1.80;1.70;;;42.80;21.00;;;;;;5078798;28;21005;-79
2022/08/11 15:56:22;;;;;;;3.35;1.85;;;42.90;21.20;;;;;;5082915;28;20278;-79
2022/08/11 16:04:26;;;;;;;2.45;1.63;;;43.00;21.00;;;;;;5087461;28;20205;-79
2022/08/11 16:06:58;;;;;;;2.92;1.48;;;42.90;20.90;;;;;;5062824;28;20661;-79
2022/08/11 16:09:31;;;;;;;1.77;1.67;;;42.80;21.20;;;;;;5083841;28;20707;-79
2022/08/11 16:12:02;;;;;;;1.60;1.50;;;42.40;20.80;;;;;;5079852;28;20201;-79
2022/08/11 16:17:20;;;;;;;1.42;1.33;;;41.80;21.00;;;;;;5083913;28;20213;-79
2022/08/11 16:19:51;;;;;;;3.70;1.85;;;41.50;21.30;;;;;;5086712;28;20223;-79
2022/08/11 16:22:33;;;;;;;2.03;1.50;;;41.50;21.80;;;;;;5081903;28;20752;-79
2022/08/11 16:25:01;;;;;;;2.08;1.52;;;41.50;21.60;;;;;;5078348;28;20205;-79
2022/08/11 16:27:29;;;;;;;3.25;1.67;;;41.30;21.50;;;;;;5084389;28;20571;-79
2022/08/11 16:29:58;;;;;;;2.05;1.60;;;41.30;21.60;;;;;;5086684;28;20229;-79
2022/08/11 16:32:26;;;;;;;1.50;1.40;;;40.90;21.40;;;;;;5078325;28;20210;-79
2022/08/11 16:40:28;;;;;;;2.75;2.13;;;40.70;21.50;;;;;;5069749;28;20279;-79
2022/08/11 16:48:43;;;;;;;4.43;1.38;;;40.20;21.80;;;;;;5011244;28;20215;-79
2022/08/11 16:51:15;;;;;;;1.92;1.83;;;39.70;22.20;;;;;;5065776;28;20841;-78
2022/08/11 16:53:44;;;;;;;1.60;1.50;;;39.50;22.00;;;;;;5069503;28;20202;-79
2022/08/11 16:56:16;;;;;;;3.35;2.85;;;39.10;22.30;;;;;;5077516;28;20216;-79
2022/08/11 17:01:33;;;;;;;2.60;1.73;;;38.90;22.20;;;;;;5068123;28;20625;-79
2022/08/11 17:18:06;;;;;;;3.05;1.70;;;38.60;22.90;;;;;;5078457;28;20213;-80
2022/08/11 17:20:35;;;;;;;4.03;2.05;;;38.50;23.00;;;;;;5080090;28;20217;-80
2022/08/11 17:25:50;;;;;;;8.02;2.15;;;38.30;22.60;;;;;;5077010;28;20204;-80
2022/08/11 17:28:18;;;;;;;3.50;1.75;;;38.20;22.70;;;;;;5082924;28;20655;-80
2022/08/11 17:36:22;;;;;;;2.50;1.52;;;37.30;23.10;;;;;;5076681;28;20255;-80
2022/08/11 17:38:52;;;;;;;3.00;2.13;;;37.20;23.10;;;;;;5082639;28;20249;-80
2022/08/11 17:49:39;;;;;;;1.50;1.40;;;36.70;23.40;;;;;;5079336;28;20231;-80
2022/08/11 18:00:24;;;;;;;1.90;1.70;;;36.00;23.90;;;;;;5077300;28;20236;-80
2022/08/11 18:05:44;;;;;;;2.23;1.43;;;35.00;24.30;;;;;;5078465;28;20877;-80
